createdAt,value
2023-03-10T00:00:40.973Z,21.33
2023-03-10T00:03:16.474Z,19.75
2023-03-10T00:05:47.018Z,24.02
2023-03-10T00:08:17.037Z,22.58
2023-03-10T00:10:48.219Z,24.75
2023-03-10T00:13:18.017Z,23.77
2023-03-10T00:15:50.080Z,26.80
2023-03-10T00:18:23.623Z,27.65
2023-03-10T00:20:56.893Z,31.95
2023-03-10T00:23:29.268Z,30.27
2023-03-10T00:26:00.905Z,28.00
2023-03-10T00:28:31.041Z,29.13
2023-03-10T00:31:02.509Z,30.65
2023-03-10T00:33:38.688Z,31.65
2023-03-10T00:36:11.298Z,29.83
2023-03-10T00:38:45.857Z,30.33
2023-03-10T00:41:23.774Z,31.70
2023-03-10T00:43:56.161Z,28.65
2023-03-10T00:46:30.416Z,28.27
2023-03-10T00:49:02.254Z,29.58
2023-03-10T00:51:33.995Z,34.25
2023-03-10T00:54:04.477Z,31.33
2023-03-10T00:56:33.389Z,32.15
2023-03-10T00:59:02.120Z,30.27
2023-03-10T01:01:32.685Z,31.92
2023-03-10T01:04:05.508Z,29.60
2023-03-10T01:06:37.127Z,31.67
2023-03-10T01:09:06.358Z,29.98
2023-03-10T01:11:36.893Z,25.58
2023-03-10T01:14:11.904Z,26.98
2023-03-10T01:16:46.251Z,28.20
2023-03-10T01:19:20.551Z,27.55
2023-03-10T01:21:50.592Z,28.80
2023-03-10T01:24:20.849Z,30.00
2023-03-10T01:26:50.376Z,31.55
2023-03-10T01:29:21.779Z,25.80
2023-03-10T01:31:50.598Z,28.70
2023-03-10T01:34:24.002Z,29.27
2023-03-10T01:36:52.637Z,28.02
2023-03-10T01:39:21.605Z,28.23
2023-03-10T01:41:52.154Z,27.65
2023-03-10T01:44:25.948Z,31.70
2023-03-10T01:46:59.415Z,34.55
2023-03-10T01:49:38.696Z,30.90
2023-03-10T01:52:14.083Z,27.67
2023-03-10T01:54:50.652Z,28.98
2023-03-10T01:57:23.579Z,28.23
2023-03-10T01:59:54.750Z,29.48
2023-03-10T02:02:25.094Z,30.90
2023-03-10T02:04:57.045Z,27.63
2023-03-10T02:07:32.319Z,23.42
2023-03-10T02:10:03.598Z,25.48
2023-03-10T02:12:33.153Z,28.45
2023-03-10T02:15:05.251Z,25.42
2023-03-10T02:20:20.483Z,25.13
2023-03-10T02:22:50.362Z,26.73
2023-03-10T02:25:30.042Z,24.55
2023-03-10T02:28:02.673Z,26.75
2023-03-10T02:30:37.293Z,24.90
2023-03-10T02:33:09.878Z,23.20
2023-03-10T02:35:40.729Z,28.98
2023-03-10T02:38:09.653Z,29.25
2023-03-10T02:40:44.841Z,25.85
2023-03-10T02:43:20.017Z,24.42
2023-03-10T02:45:51.706Z,23.65
2023-03-10T02:48:27.866Z,22.75
2023-03-10T02:50:57.908Z,24.77
2023-03-10T02:53:35.620Z,22.65
2023-03-10T02:56:07.631Z,26.45
2023-03-10T02:58:38.110Z,24.50
2023-03-10T03:01:11.869Z,23.73
2023-03-10T03:03:45.686Z,26.50
2023-03-10T03:06:16.277Z,23.48
2023-03-10T03:08:46.645Z,23.35
2023-03-10T03:11:15.864Z,22.92
2023-03-10T03:13:45.897Z,24.45
2023-03-10T03:16:16.038Z,21.90
2023-03-10T03:18:46.007Z,24.98
2023-03-10T03:21:19.592Z,21.92
2023-03-10T03:23:51.286Z,23.55
2023-03-10T03:26:23.982Z,24.98
2023-03-10T03:28:56.474Z,21.88
2023-03-10T03:31:26.718Z,24.33
2023-03-10T03:33:55.266Z,23.30
2023-03-10T03:36:25.318Z,25.13
2023-03-10T03:38:57.143Z,25.13
2023-03-10T03:41:27.619Z,24.73
2023-03-10T03:43:59.541Z,22.42
2023-03-10T03:46:33.084Z,25.38
2023-03-10T03:49:03.809Z,22.50
2023-03-10T03:51:35.840Z,23.15
2023-03-10T03:56:34.231Z,23.38
2023-03-10T03:59:05.214Z,22.15
2023-03-10T04:01:34.665Z,24.50
2023-03-10T04:04:02.790Z,24.08
2023-03-10T04:06:31.395Z,24.92
2023-03-10T04:09:01.799Z,23.73
2023-03-10T04:11:33.419Z,23.77
2023-03-10T04:14:05.782Z,23.77
2023-03-10T04:16:35.828Z,27.77
2023-03-10T04:19:07.718Z,31.50
2023-03-10T04:21:36.408Z,33.28
2023-03-10T04:24:05.825Z,32.53
2023-03-10T04:26:36.118Z,30.38
2023-03-10T04:29:08.821Z,26.60
2023-03-10T04:31:37.607Z,24.33
2023-03-10T04:34:07.758Z,27.23
2023-03-10T04:36:38.215Z,26.70
2023-03-10T04:39:09.819Z,24.30
2023-03-10T04:41:40.947Z,24.83
2023-03-10T04:44:24.361Z,25.77
2023-03-10T04:46:59.139Z,25.10
2023-03-10T04:49:30.014Z,22.70
2023-03-10T04:52:00.288Z,25.88
2023-03-10T04:54:30.410Z,25.17
2023-03-10T04:57:03.953Z,23.13
2023-03-10T04:59:37.781Z,25.40
2023-03-10T05:02:07.236Z,24.70
2023-03-10T05:04:35.746Z,24.63
2023-03-10T05:07:03.993Z,25.35
2023-03-10T05:09:32.604Z,26.63
2023-03-10T05:12:03.089Z,26.73
2023-03-10T05:14:37.506Z,24.27
2023-03-10T05:17:07.595Z,22.83
2023-03-10T05:19:40.581Z,26.60
2023-03-10T05:22:11.463Z,25.00
2023-03-10T05:24:43.039Z,23.63
2023-03-10T05:27:15.030Z,32.00
2023-03-10T05:29:47.903Z,27.27
2023-03-10T05:32:19.006Z,26.80
2023-03-10T05:34:48.900Z,26.42
2023-03-10T05:37:20.209Z,27.45
2023-03-10T05:42:20.887Z,20.45
2023-03-10T05:44:53.832Z,24.55
2023-03-10T05:47:22.473Z,26.63
2023-03-10T05:49:51.132Z,28.23
2023-03-10T05:52:20.869Z,25.65
2023-03-10T05:54:50.729Z,31.50
2023-03-10T05:57:19.798Z,32.88
2023-03-10T05:59:54.133Z,29.35
2023-03-10T06:02:24.500Z,28.45
2023-03-10T06:04:55.187Z,29.15
2023-03-10T06:07:24.986Z,30.40
2023-03-10T06:09:55.033Z,28.33
2023-03-10T06:12:27.771Z,26.13
2023-03-10T06:14:57.655Z,27.08
2023-03-10T06:17:29.175Z,28.77
2023-03-10T06:20:01.985Z,27.33
2023-03-10T06:22:32.965Z,28.63
2023-03-10T06:25:06.521Z,25.98
2023-03-10T06:27:37.855Z,23.38
2023-03-10T06:30:09.650Z,25.77
2023-03-10T06:32:41.714Z,22.40
2023-03-10T06:35:14.822Z,23.00
2023-03-10T06:37:43.522Z,22.13
2023-03-10T06:40:15.257Z,21.58
2023-03-10T06:42:44.502Z,21.05
2023-03-10T06:45:18.784Z,25.30
2023-03-10T06:47:52.052Z,20.60
2023-03-10T06:50:20.789Z,21.85
2023-03-10T06:52:50.788Z,21.25
2023-03-10T06:55:23.531Z,22.13
2023-03-10T06:57:51.857Z,21.73
2023-03-10T07:00:22.407Z,22.05
2023-03-10T07:02:53.591Z,23.63
2023-03-10T07:05:24.792Z,24.65
2023-03-10T07:07:55.758Z,22.50
2023-03-10T07:10:26.178Z,19.25
2023-03-10T07:13:09.644Z,20.02
2023-03-10T07:15:40.055Z,17.63
2023-03-10T07:18:12.204Z,19.77
2023-03-10T07:20:44.757Z,18.10
2023-03-10T07:23:16.448Z,17.30
2023-03-10T07:25:46.408Z,17.00
2023-03-10T07:28:16.524Z,19.90
2023-03-10T07:30:47.408Z,20.38
2023-03-10T07:33:15.739Z,18.67
2023-03-10T07:35:45.871Z,17.70
2023-03-10T07:38:15.186Z,20.42
2023-03-10T07:40:45.360Z,21.02
2023-03-10T07:43:17.344Z,21.30
2023-03-10T07:45:49.651Z,20.98
2023-03-10T07:50:46.654Z,21.35
2023-03-10T07:53:17.716Z,19.50
2023-03-10T07:55:48.237Z,21.80
2023-03-10T07:58:16.929Z,24.33
2023-03-10T08:00:45.547Z,19.05
2023-03-10T08:03:16.631Z,18.95
2023-03-10T08:05:47.207Z,20.00
2023-03-10T08:08:15.681Z,19.55
2023-03-10T08:10:44.304Z,20.73
2023-03-10T08:13:14.552Z,19.70
2023-03-10T08:15:43.749Z,17.05
2023-03-10T08:18:13.718Z,18.92
2023-03-10T08:20:44.340Z,17.52
2023-03-10T08:23:13.553Z,21.00
2023-03-10T08:25:42.607Z,21.08
2023-03-10T08:28:10.896Z,21.58
2023-03-10T08:30:57.051Z,16.52
2023-03-10T08:33:30.894Z,21.38
2023-03-10T08:36:08.683Z,17.20
2023-03-10T08:38:39.823Z,19.17
2023-03-10T08:41:14.484Z,20.80
2023-03-10T08:43:49.127Z,25.55
2023-03-10T08:46:20.128Z,18.55
2023-03-10T08:48:49.159Z,19.65
2023-03-10T08:51:24.086Z,17.95
2023-03-10T08:53:55.871Z,15.68
2023-03-10T08:56:26.231Z,12.95
2023-03-10T08:59:00.787Z,16.08
2023-03-10T09:01:32.291Z,12.57
2023-03-10T09:04:11.197Z,14.63
2023-03-10T09:06:42.930Z,12.52
2023-03-10T09:09:14.499Z,11.95
2023-03-10T09:11:44.088Z,13.38
2023-03-10T09:14:17.062Z,15.88
2023-03-10T09:16:46.551Z,15.30
2023-03-10T09:19:16.496Z,11.93
2023-03-10T09:21:47.896Z,12.75
2023-03-10T09:24:19.490Z,10.55
2023-03-10T09:26:47.926Z,15.10
2023-03-10T09:29:20.342Z,15.48
2023-03-10T09:31:53.778Z,10.70
2023-03-10T09:34:24.278Z,14.10
2023-03-10T09:36:54.975Z,12.32
2023-03-10T09:39:24.105Z,12.25
2023-03-10T09:42:25.551Z,18.85
2023-03-10T09:45:12.781Z,20.65
2023-03-10T09:47:48.994Z,12.95
2023-03-10T09:50:34.400Z,16.05
2023-03-10T09:53:17.075Z,16.85
2023-03-10T09:55:48.641Z,13.57
2023-03-10T09:58:30.585Z,17.15
2023-03-10T10:01:01.248Z,15.90
2023-03-10T10:03:46.358Z,13.35
2023-03-10T10:06:49.988Z,14.60
2023-03-10T10:09:35.313Z,16.33
2023-03-10T10:12:13.313Z,14.52
2023-03-10T10:14:55.086Z,17.05
2023-03-10T10:17:55.164Z,12.48
2023-03-10T10:20:36.609Z,15.38
2023-03-10T10:23:07.776Z,12.32
2023-03-10T10:25:41.028Z,12.40
2023-03-10T10:28:26.058Z,13.13
2023-03-10T10:31:11.867Z,14.25
2023-03-10T10:33:58.991Z,9.57
2023-03-10T10:36:30.696Z,13.48
2023-03-10T10:38:59.679Z,8.85
2023-03-10T10:41:31.774Z,11.02
2023-03-10T10:44:06.821Z,12.45
2023-03-10T10:46:35.970Z,12.15
2023-03-10T10:49:11.502Z,10.85
2023-03-10T10:51:41.019Z,13.70
2023-03-10T10:54:29.862Z,10.77
2023-03-10T10:57:03.180Z,11.60
2023-03-10T10:59:33.449Z,13.48
2023-03-10T11:02:04.039Z,12.15
2023-03-10T11:04:43.760Z,11.32
2023-03-10T11:07:17.496Z,10.93
2023-03-10T11:09:51.833Z,13.48
2023-03-10T11:12:28.363Z,14.00
2023-03-10T11:15:07.506Z,12.07
2023-03-10T11:17:43.280Z,12.07
2023-03-10T11:20:24.582Z,10.75
2023-03-10T11:23:02.679Z,9.55
2023-03-10T11:25:39.140Z,11.07
2023-03-10T11:28:42.436Z,12.07
2023-03-10T11:31:25.583Z,13.85
2023-03-10T11:34:00.354Z,10.27
2023-03-10T11:36:53.285Z,11.95
2023-03-10T11:39:32.561Z,11.88
2023-03-10T11:42:12.072Z,12.90
2023-03-10T11:44:48.516Z,9.88
2023-03-10T11:47:21.520Z,10.65
2023-03-10T11:49:59.272Z,9.98
2023-03-10T11:52:29.966Z,13.30
2023-03-10T11:55:05.803Z,12.50
2023-03-10T11:57:41.318Z,13.15
2023-03-10T12:00:24.237Z,14.85
2023-03-10T12:10:42.477Z,10.50
2023-03-10T12:13:22.620Z,10.63
2023-03-10T12:15:58.355Z,9.30
2023-03-10T12:18:28.823Z,10.95
2023-03-10T12:21:25.277Z,9.70
2023-03-10T12:23:55.608Z,11.13
2023-03-10T12:27:02.901Z,8.43
2023-03-10T12:29:42.137Z,10.07
2023-03-10T12:32:50.484Z,11.98
2023-03-10T12:35:51.181Z,12.45
2023-03-10T12:38:39.365Z,10.18
2023-03-10T12:41:09.644Z,8.55
2023-03-10T12:44:09.095Z,12.60
2023-03-10T12:46:45.658Z,13.35
2023-03-10T12:49:29.778Z,9.82
2023-03-10T12:52:12.490Z,10.50
2023-03-10T12:54:53.852Z,10.15
2023-03-10T12:57:30.117Z,13.77
2023-03-10T13:00:05.116Z,10.27
2023-03-10T13:02:44.852Z,7.97
2023-03-10T13:05:23.309Z,10.23
2023-03-10T13:07:57.158Z,11.90
2023-03-10T13:10:30.357Z,11.68
2023-03-10T13:13:03.490Z,10.35
2023-03-10T13:15:34.567Z,8.98
2023-03-10T13:18:18.131Z,11.25
2023-03-10T13:20:54.611Z,8.93
2023-03-10T13:23:27.762Z,9.98
2023-03-10T13:25:57.966Z,8.93
2023-03-10T13:28:27.948Z,9.80
2023-03-10T13:31:20.910Z,8.77
2023-03-10T13:33:54.341Z,12.43
2023-03-10T13:36:32.123Z,10.18
2023-03-10T13:39:03.597Z,10.05
2023-03-10T13:41:38.360Z,9.48
2023-03-10T13:44:06.898Z,7.85
2023-03-10T13:46:39.701Z,9.73
2023-03-10T13:51:40.109Z,13.57
2023-03-10T13:54:21.618Z,13.40
2023-03-10T13:56:52.435Z,8.25
2023-03-10T13:59:27.800Z,8.60
2023-03-10T14:01:59.141Z,6.85
2023-03-10T14:04:45.085Z,9.57
2023-03-10T14:07:18.464Z,7.07
2023-03-10T14:10:13.161Z,8.60
2023-03-10T14:12:43.882Z,7.03
2023-03-10T14:15:22.122Z,7.88
2023-03-10T14:17:54.502Z,7.63
2023-03-10T14:20:28.535Z,7.97
2023-03-10T14:22:59.664Z,7.97
2023-03-10T14:25:28.429Z,8.80
2023-03-10T14:27:59.744Z,9.50
2023-03-10T14:30:30.482Z,8.80
2023-03-10T14:33:00.835Z,6.57
2023-03-10T14:35:31.240Z,9.38
2023-03-10T14:38:05.813Z,6.93
2023-03-10T14:40:39.935Z,10.27
2023-03-10T14:43:17.116Z,11.43
2023-03-10T14:45:47.004Z,8.50
2023-03-10T14:48:18.197Z,8.88
2023-03-10T14:50:47.671Z,7.40
2023-03-10T14:53:18.962Z,10.30
2023-03-10T14:55:52.859Z,10.20
2023-03-10T14:58:23.304Z,7.72
2023-03-10T15:00:52.444Z,10.10
2023-03-10T15:03:21.637Z,11.13
2023-03-10T15:05:50.913Z,7.47
2023-03-10T15:08:20.942Z,8.38
2023-03-10T15:10:54.540Z,8.60
2023-03-10T15:13:24.925Z,9.75
2023-03-10T15:15:53.665Z,7.95
2023-03-10T15:18:27.701Z,9.73
2023-03-10T15:21:00.501Z,13.27
2023-03-10T15:23:34.947Z,12.70
2023-03-10T15:26:09.648Z,9.00
2023-03-10T15:28:38.690Z,9.63
2023-03-10T15:31:07.558Z,9.50
2023-03-10T15:33:35.834Z,12.40
2023-03-10T15:36:05.834Z,10.25
2023-03-10T15:38:35.907Z,10.57
2023-03-10T15:41:05.739Z,9.70
2023-03-10T15:43:34.202Z,9.55
2023-03-10T15:46:09.802Z,11.45
2023-03-10T15:48:38.658Z,10.13
2023-03-10T15:51:10.146Z,12.57
2023-03-10T15:53:40.247Z,9.48
2023-03-10T15:56:10.049Z,10.23
2023-03-10T15:58:38.555Z,13.27
2023-03-10T16:01:11.789Z,12.27
2023-03-10T16:03:40.492Z,11.25
2023-03-10T16:06:10.448Z,11.10
2023-03-10T16:08:41.998Z,9.48
2023-03-10T16:11:19.012Z,8.80
2023-03-10T16:13:50.805Z,11.50
2023-03-10T16:16:23.635Z,11.55
2023-03-10T16:18:52.831Z,10.57
2023-03-10T16:21:21.515Z,10.80
2023-03-10T16:23:51.839Z,10.98
2023-03-10T16:26:25.930Z,10.27
2023-03-10T16:29:02.677Z,11.60
2023-03-10T16:31:36.705Z,9.30
2023-03-10T16:34:05.630Z,9.85
2023-03-10T16:36:36.704Z,10.00
2023-03-10T16:39:09.643Z,9.68
2023-03-10T16:41:38.355Z,13.57
2023-03-10T16:44:07.212Z,14.82
2023-03-10T16:46:35.818Z,10.93
2023-03-10T16:49:04.659Z,11.23
2023-03-10T16:51:35.587Z,10.13
2023-03-10T16:54:08.152Z,13.48
2023-03-10T16:56:40.222Z,11.57
2023-03-10T16:59:09.152Z,12.30
2023-03-10T17:01:41.020Z,11.15
2023-03-10T17:04:09.650Z,13.93
2023-03-10T17:06:48.072Z,13.98
2023-03-10T17:09:18.772Z,12.18
2023-03-10T17:11:49.684Z,17.88
2023-03-10T17:14:18.761Z,14.43
2023-03-10T17:16:48.649Z,15.18
2023-03-10T17:19:19.805Z,12.35
2023-03-10T17:21:51.561Z,11.85
2023-03-10T17:24:23.652Z,13.40
2023-03-10T17:26:56.024Z,13.35
2023-03-10T17:29:24.798Z,11.50
2023-03-10T17:31:53.223Z,12.90
2023-03-10T17:34:21.810Z,15.60
2023-03-10T17:36:51.711Z,13.95
2023-03-10T17:39:24.422Z,14.75
2023-03-10T17:41:54.434Z,12.68
2023-03-10T17:44:22.729Z,11.02
2023-03-10T17:46:52.696Z,12.13
2023-03-10T17:49:21.456Z,12.82
2023-03-10T17:51:49.909Z,17.00
2023-03-10T17:54:21.033Z,20.50
2023-03-10T17:56:52.200Z,22.60
2023-03-10T17:59:21.165Z,22.73
2023-03-10T18:01:50.120Z,19.60
2023-03-10T18:04:20.097Z,22.50
2023-03-10T18:06:49.812Z,26.48
2023-03-10T18:09:18.519Z,23.48
2023-03-10T18:11:47.283Z,24.02
2023-03-10T18:14:17.709Z,25.35
2023-03-10T18:16:46.897Z,19.38
2023-03-10T18:19:19.010Z,17.13
2023-03-10T18:21:51.093Z,14.75
2023-03-10T18:24:19.954Z,16.35
2023-03-10T18:26:50.950Z,18.15
2023-03-10T18:29:22.061Z,14.57
2023-03-10T18:31:50.632Z,15.98
2023-03-10T18:34:19.763Z,17.35
2023-03-10T18:36:51.926Z,19.65
2023-03-10T18:39:22.808Z,16.05
2023-03-10T18:41:54.222Z,18.50
2023-03-10T18:44:26.902Z,18.27
2023-03-10T18:46:58.104Z,21.20
2023-03-10T18:49:26.566Z,16.48
2023-03-10T18:51:55.948Z,17.92
2023-03-10T18:54:24.781Z,20.45
2023-03-10T18:56:53.209Z,24.20
2023-03-10T18:59:22.088Z,22.50
2023-03-10T19:01:52.753Z,20.08
2023-03-10T19:04:27.350Z,17.77
2023-03-10T19:06:56.241Z,20.05
2023-03-10T19:09:24.705Z,20.63
2023-03-10T19:11:59.401Z,26.45
2023-03-10T19:14:29.077Z,22.83
2023-03-10T19:16:59.939Z,23.23
2023-03-10T19:19:34.198Z,25.00
2023-03-10T19:22:02.794Z,24.58
2023-03-10T19:24:31.460Z,24.38
2023-03-10T19:27:04.286Z,26.00
2023-03-10T19:29:35.621Z,27.33
2023-03-10T19:32:09.885Z,25.48
2023-03-10T19:34:38.750Z,26.85
2023-03-10T19:37:07.458Z,31.98
2023-03-10T19:39:36.714Z,34.75
2023-03-10T19:42:04.997Z,36.20
2023-03-10T19:44:34.530Z,27.95
2023-03-10T19:47:03.091Z,29.50
2023-03-10T19:49:36.347Z,21.55
2023-03-10T19:54:33.273Z,11.90
2023-03-10T19:57:01.559Z,14.30
2023-03-10T19:59:29.962Z,14.18
2023-03-10T20:02:02.410Z,13.70
2023-03-10T20:04:34.691Z,15.82
2023-03-10T20:07:04.286Z,14.35
2023-03-10T20:09:33.534Z,18.45
2023-03-10T20:12:04.740Z,18.35
2023-03-10T20:14:33.042Z,18.73
2023-03-10T20:17:02.133Z,17.30
2023-03-10T20:19:31.212Z,16.23
2023-03-10T20:22:02.667Z,17.63
2023-03-10T20:24:33.493Z,17.10
2023-03-10T20:27:03.757Z,17.35
2023-03-10T20:29:33.771Z,18.10
2023-03-10T20:32:04.323Z,17.88
2023-03-10T20:34:35.243Z,18.52
2023-03-10T20:37:03.820Z,20.70
2023-03-10T20:39:38.364Z,22.58
2023-03-10T20:42:11.978Z,28.67
2023-03-10T20:44:40.724Z,41.80
2023-03-10T20:47:09.018Z,42.03
2023-03-10T20:49:40.059Z,27.67
2023-03-10T20:52:10.031Z,28.63
2023-03-10T20:54:47.977Z,36.05
2023-03-10T20:57:17.186Z,26.60
2023-03-10T20:59:47.020Z,24.45
2023-03-10T21:02:16.738Z,26.00
2023-03-10T21:04:47.269Z,29.63
2023-03-10T21:07:18.756Z,33.95
2023-03-10T21:09:49.389Z,34.13
2023-03-10T21:12:21.200Z,32.45
2023-03-10T21:14:50.351Z,39.42
2023-03-10T21:17:20.195Z,33.42
2023-03-10T21:19:48.742Z,30.98
2023-03-10T21:22:19.645Z,40.95
2023-03-10T21:24:49.884Z,44.38
2023-03-10T21:27:21.276Z,43.08
2023-03-10T21:29:49.698Z,43.15
2023-03-10T21:32:19.653Z,43.47
2023-03-10T21:34:48.849Z,39.85
2023-03-10T21:37:20.661Z,41.45
2023-03-10T21:39:54.760Z,39.97
2023-03-10T21:42:23.901Z,39.65
2023-03-10T21:44:56.052Z,42.63
2023-03-10T21:47:25.913Z,53.13
2023-03-10T21:49:54.678Z,48.72
2023-03-10T21:52:25.733Z,42.60
2023-03-10T21:54:56.726Z,44.57
2023-03-10T21:57:26.709Z,41.85
2023-03-10T22:00:00.531Z,47.50
2023-03-10T22:02:31.242Z,54.42
2023-03-10T22:05:01.693Z,47.53
2023-03-10T22:07:29.965Z,45.35
2023-03-10T22:10:00.971Z,45.05
2023-03-10T22:12:30.810Z,49.97
2023-03-10T22:14:59.197Z,47.20
2023-03-10T22:17:29.445Z,50.25
2023-03-10T22:19:58.375Z,43.83
2023-03-10T22:22:29.418Z,43.05
2023-03-10T22:25:02.044Z,40.30
2023-03-10T22:27:34.080Z,41.65
2023-03-10T22:30:03.464Z,38.90
2023-03-10T22:32:34.864Z,35.03
2023-03-10T22:35:04.271Z,30.35
2023-03-10T22:37:34.252Z,29.05
2023-03-10T22:40:05.403Z,29.10
2023-03-10T22:42:34.446Z,32.63
2023-03-10T22:45:04.555Z,20.45
2023-03-10T22:47:34.645Z,16.92
2023-03-10T22:50:06.326Z,16.73
2023-03-10T22:52:37.524Z,16.83
2023-03-10T22:55:08.388Z,13.93
2023-03-10T22:57:37.536Z,13.82
2023-03-10T23:00:09.000Z,15.00
2023-03-10T23:02:38.322Z,15.82
2023-03-10T23:05:08.581Z,12.70
2023-03-10T23:07:38.705Z,11.68
2023-03-10T23:10:13.692Z,9.77
2023-03-10T23:12:46.018Z,10.15
2023-03-10T23:15:24.774Z,9.00
2023-03-10T23:17:56.225Z,8.40
2023-03-10T23:20:27.908Z,9.80
2023-03-10T23:22:58.081Z,10.45
2023-03-10T23:25:36.340Z,11.68
2023-03-10T23:28:06.424Z,11.23
2023-03-10T23:30:36.862Z,9.25
2023-03-10T23:33:07.619Z,9.25
2023-03-10T23:35:38.526Z,11.90
2023-03-10T23:38:07.372Z,9.23
2023-03-10T23:40:39.538Z,10.38
2023-03-10T23:43:10.972Z,10.85
2023-03-10T23:45:40.777Z,11.10
2023-03-10T23:48:12.146Z,9.73
2023-03-10T23:50:43.469Z,9.10
2023-03-10T23:53:14.328Z,10.90
2023-03-10T23:55:48.426Z,7.22
2023-03-10T23:58:18.202Z,7.78
